createdAt,value
2018-09-11T00:00:09.757Z,72.23
2018-09-11T00:01:09.779Z,71.84
2018-09-11T00:02:09.807Z,72.23
2018-09-11T00:03:09.573Z,72.48
2018-09-11T00:04:09.594Z,72.19
2018-09-11T00:05:09.620Z,72.38
2018-09-11T00:06:09.899Z,72.19
2018-09-11T00:07:09.922Z,72.03
2018-09-11T00:10:10.039Z,72.38
2018-09-11T00:11:10.017Z,72
2018-09-11T00:12:10.046Z,72.42
2018-09-11T00:13:10.064Z,72.13
2018-09-11T00:14:09.833Z,71.91
2018-09-11T00:15:24.776Z,72.13
2018-09-11T00:16:10.137Z,72.03
2018-09-11T00:17:10.162Z,72.42
2018-09-11T00:18:10.184Z,72.23
2018-09-11T00:19:10.210Z,72.23
2018-09-11T00:20:10.236Z,72.23
2018-09-11T00:22:10.282Z,72.23
2018-09-11T00:23:10.365Z,72.23
2018-09-11T00:24:10.325Z,72.03
2018-09-11T00:25:10.352Z,72.42
2018-09-11T00:26:10.376Z,72.03
2018-09-11T00:27:10.410Z,72.23
2018-09-11T00:28:10.167Z,72.32
2018-09-11T00:29:10.450Z,72.52
2018-09-11T00:30:10.471Z,72.29
2018-09-11T00:31:25.158Z,71.94
2018-09-11T00:32:10.523Z,72.38
2018-09-11T00:33:10.543Z,72.23
2018-09-11T00:34:10.567Z,72.13
2018-09-11T00:35:10.590Z,72.23
2018-09-11T00:36:10.618Z,72.23
2018-09-11T00:37:10.639Z,72.23
2018-09-11T00:38:10.666Z,72.13
2018-09-11T00:39:10.689Z,72.23
2018-09-11T00:40:10.710Z,72.23
2018-09-11T00:41:10.735Z,72.32
2018-09-11T00:43:10.819Z,72.23
2018-09-11T00:44:10.547Z,72.23
2018-09-11T00:45:10.837Z,72.48
2018-09-11T00:46:10.854Z,72.67
2018-09-11T00:47:25.539Z,73.06
2018-09-11T00:48:10.643Z,73.06
2018-09-11T00:49:10.925Z,73.06
2018-09-11T00:50:10.949Z,72.77
2018-09-11T00:51:10.972Z,72.58
2018-09-11T00:52:10.997Z,72.67
2018-09-11T00:53:11.019Z,72.86
2018-09-11T00:54:11.042Z,73.44
2018-09-11T00:56:11.093Z,73.35
2018-09-11T00:57:11.112Z,73.25
2018-09-11T00:58:11.137Z,73.35
2018-09-11T00:59:11.166Z,73.44
2018-09-11T01:00:11.185Z,73.44
2018-09-11T01:01:11.221Z,73.15
2018-09-11T01:02:25.894Z,73.54
2018-09-11T01:03:11.259Z,73.54
2018-09-11T01:04:11.281Z,73.35
2018-09-11T01:05:11.304Z,73.35
2018-09-11T01:06:11.327Z,73.54
2018-09-11T01:07:11.355Z,73.44
2018-09-11T01:08:11.376Z,73.25
2018-09-11T01:09:11.405Z,73.83
2018-09-11T01:10:11.538Z,73.83
2018-09-11T01:11:11.455Z,74.02
2018-09-11T01:12:11.471Z,74.02
2018-09-11T01:13:11.495Z,73.92
2018-09-11T01:14:11.519Z,74.11
2018-09-11T01:15:11.544Z,73.92
2018-09-11T01:16:11.565Z,74.02
2018-09-11T01:17:11.591Z,73.83
2018-09-11T01:18:11.616Z,73.92
2018-09-11T01:19:11.641Z,73.73
2018-09-11T01:20:11.405Z,73.73
2018-09-11T01:21:11.685Z,74.02
2018-09-11T01:22:11.708Z,74.21
2018-09-11T01:23:11.736Z,73.92
2018-09-11T01:24:11.757Z,73.63
2018-09-11T01:25:11.785Z,74.02
2018-09-11T01:26:11.803Z,74.3
2018-09-11T01:27:11.837Z,74.02
2018-09-11T01:28:11.857Z,74.21
2018-09-11T01:29:11.876Z,74.4
2018-09-11T01:30:11.641Z,74.4
2018-09-11T01:31:11.930Z,74.3
2018-09-11T01:32:11.688Z,74.3
2018-09-11T01:33:11.972Z,74.4
2018-09-11T01:34:26.659Z,74.11
2018-09-11T01:35:12.016Z,74.17
2018-09-11T01:36:12.041Z,74.55
2018-09-11T01:37:12.068Z,73.88
2018-09-11T01:38:11.835Z,74.08
2018-09-11T01:39:12.114Z,73.88
2018-09-11T01:40:12.296Z,74.55
2018-09-11T01:41:12.163Z,74.46
2018-09-11T01:42:12.180Z,74.27
2018-09-11T01:43:11.950Z,74.65
2018-09-11T01:44:12.242Z,74.75
2018-09-11T01:45:12.254Z,74.17
2018-09-11T01:46:12.278Z,74.5
2018-09-11T01:47:12.303Z,74.94
2018-09-11T01:48:12.326Z,74.94
2018-09-11T01:49:12.353Z,74.65
2018-09-11T01:50:27.034Z,74.85
2018-09-11T01:51:12.399Z,74.94
2018-09-11T01:52:12.430Z,74.75
2018-09-11T01:53:12.445Z,74.65
2018-09-11T01:54:12.467Z,74.75
2018-09-11T01:55:12.492Z,74.75
2018-09-11T01:56:12.513Z,74.94
2018-09-11T01:57:12.551Z,74.46
2018-09-11T01:58:12.573Z,74.94
2018-09-11T01:59:12.593Z,74.46
2018-09-11T02:00:12.610Z,74.46
2018-09-11T02:01:12.633Z,75.04
2018-09-11T02:02:12.400Z,74.85
2018-09-11T02:03:12.680Z,74.46
2018-09-11T02:04:12.703Z,74.75
2018-09-11T02:05:12.730Z,75.04
2018-09-11T02:06:27.516Z,75.13
2018-09-11T02:07:12.518Z,75.52
2018-09-11T02:08:12.799Z,75.04
2018-09-11T02:09:12.821Z,75.32
2018-09-11T02:10:12.851Z,75.32
2018-09-11T02:11:12.873Z,75.13
2018-09-11T02:12:12.900Z,75.13
2018-09-11T02:14:13.006Z,75.52
2018-09-11T02:15:12.964Z,76
2018-09-11T02:16:12.989Z,75.23
2018-09-11T02:18:13.036Z,75.9
2018-09-11T02:19:12.803Z,76
2018-09-11T02:20:13.082Z,75.71
2018-09-11T02:21:13.107Z,76.09
2018-09-11T02:22:27.792Z,76.29
2018-09-11T02:23:13.154Z,76.67
2018-09-11T02:24:13.188Z,76.67
2018-09-11T02:25:13.211Z,76.19
2018-09-11T02:26:13.224Z,75.9
2018-09-11T02:27:13.255Z,75.81
2018-09-11T02:28:13.270Z,76
2018-09-11T02:30:13.325Z,76.19
2018-09-11T02:32:13.109Z,76.67
2018-09-11T02:33:13.392Z,77.15
2018-09-11T02:34:13.416Z,77.06
2018-09-11T02:35:13.438Z,76.64
2018-09-11T02:36:13.463Z,77.31
2018-09-11T02:37:28.148Z,76.86
2018-09-11T02:38:13.510Z,77.31
2018-09-11T02:39:13.531Z,77.59
2018-09-11T02:40:13.558Z,77.59
2018-09-11T02:41:13.583Z,77.5
2018-09-11T02:42:13.606Z,78.55
2018-09-11T02:43:13.629Z,78.75
2018-09-11T02:44:13.652Z,79.13
2018-09-11T02:45:13.678Z,78.94
2018-09-11T02:47:13.726Z,79.32
2018-09-11T02:48:13.487Z,79.22
2018-09-11T02:49:13.778Z,78.94
2018-09-11T02:50:13.794Z,79.8
2018-09-11T02:51:13.817Z,79.99
2018-09-11T02:52:13.842Z,79.8
2018-09-11T02:53:13.864Z,79.71
2018-09-11T02:55:13.920Z,80.28
2018-09-11T02:56:13.677Z,80.86
2018-09-11T02:57:13.701Z,80.57
2018-09-11T02:58:13.995Z,80.76
2018-09-11T02:59:14.007Z,81.34
2018-09-11T03:00:14.032Z,81.2
2018-09-11T03:01:14.050Z,81.15
2018-09-11T03:02:14.083Z,81.05
2018-09-11T03:03:14.109Z,81.05
2018-09-11T03:04:14.123Z,81.72
2018-09-11T03:05:14.158Z,81.15
2018-09-11T03:06:14.169Z,81.63
2018-09-11T03:07:14.201Z,81.43
2018-09-11T03:08:14.217Z,81.82
2018-09-11T03:09:28.902Z,81.72
2018-09-11T03:10:14.262Z,81.3
2018-09-11T03:11:14.288Z,81.78
2018-09-11T03:12:14.311Z,81.82
2018-09-11T03:13:14.338Z,81.82
2018-09-11T03:14:14.356Z,81.87
2018-09-11T03:15:14.382Z,82.01
2018-09-11T03:16:14.148Z,82.45
2018-09-11T03:17:14.425Z,83.03
2018-09-11T03:19:14.477Z,83.22
2018-09-11T03:20:14.241Z,83.22
2018-09-11T03:21:14.263Z,83.6
2018-09-11T03:22:14.546Z,83.89
2018-09-11T03:23:14.569Z,84.08
2018-09-11T03:24:14.592Z,83.6
2018-09-11T03:25:29.277Z,83.41
2018-09-11T03:26:14.645Z,83.03
2018-09-11T03:27:14.662Z,83.45
2018-09-11T03:28:14.686Z,83.8
2018-09-11T03:29:14.712Z,83.6
2018-09-11T03:30:14.736Z,83.03
2018-09-11T03:31:14.758Z,82.59
2018-09-11T03:32:14.789Z,82.97
2018-09-11T03:33:14.803Z,83.31
2018-09-11T03:34:14.825Z,83.26
2018-09-11T03:35:14.851Z,83.12
2018-09-11T03:36:14.874Z,82.84
2018-09-11T03:37:14.906Z,83.45
2018-09-11T03:38:14.931Z,83.8
2018-09-11T03:39:14.946Z,83.6
2018-09-11T03:40:14.968Z,83.22
2018-09-11T03:41:29.653Z,83.51
2018-09-11T03:42:14.758Z,83.6
2018-09-11T03:43:15.039Z,83.26
2018-09-11T03:44:15.171Z,83.22
2018-09-11T03:45:15.083Z,83.03
2018-09-11T03:46:15.118Z,84.12
2018-09-11T03:47:15.132Z,83.93
2018-09-11T03:48:15.157Z,84.66
2018-09-11T03:49:15.186Z,84.51
2018-09-11T03:50:15.204Z,84.27
2018-09-11T03:51:15.227Z,84.6
2018-09-11T03:53:15.274Z,84.47
2018-09-11T03:54:15.297Z,84.56
2018-09-11T03:55:15.323Z,84.47
2018-09-11T03:56:15.347Z,84.85
2018-09-11T03:57:30.028Z,84.66
2018-09-11T03:58:15.389Z,84.47
2018-09-11T03:59:15.500Z,84.47
2018-09-11T04:00:15.441Z,85.04
2018-09-11T04:01:15.462Z,84.56
2018-09-11T04:03:15.507Z,85.42
2018-09-11T04:05:15.567Z,85.52
2018-09-11T04:06:15.633Z,86
2018-09-11T04:08:15.627Z,86
2018-09-11T04:09:15.648Z,85.71
2018-09-11T04:10:15.674Z,85.24
2018-09-11T04:11:15.795Z,86.1
2018-09-11T04:12:30.380Z,85.24
2018-09-11T04:13:15.743Z,85.91
2018-09-11T04:14:15.767Z,86
2018-09-11T04:15:15.789Z,85.81
2018-09-11T04:16:15.813Z,86.1
2018-09-11T04:17:15.839Z,85.81
2018-09-11T04:18:15.865Z,85.24
2018-09-11T04:19:15.883Z,85.91
2018-09-11T04:20:15.909Z,86
2018-09-11T04:21:15.928Z,86.58
2018-09-11T04:22:15.962Z,86.38
2018-09-11T04:23:15.977Z,86.48
2018-09-11T04:24:16.000Z,86.19
2018-09-11T04:25:16.024Z,86.48
2018-09-11T04:26:15.792Z,86.38
2018-09-11T04:27:16.072Z,86.58
2018-09-11T04:28:16.095Z,86.1
2018-09-11T04:29:16.166Z,86.38
2018-09-11T04:30:16.137Z,87.05
2018-09-11T04:31:16.166Z,86.58
2018-09-11T04:33:16.209Z,85.91
2018-09-11T04:34:16.235Z,86.1
2018-09-11T04:35:16.256Z,86.29
2018-09-11T04:36:16.383Z,86
2018-09-11T04:37:16.303Z,86.58
2018-09-11T04:38:16.328Z,86
2018-09-11T04:39:16.352Z,86.38
2018-09-11T04:40:16.376Z,87.15
2018-09-11T04:41:16.402Z,86.48
2018-09-11T04:42:16.423Z,86.1
2018-09-11T04:43:16.459Z,86.87
2018-09-11T04:44:31.129Z,86.29
2018-09-11T04:45:16.492Z,86.19
2018-09-11T04:46:16.515Z,86.38
2018-09-11T04:47:16.538Z,85.62
2018-09-11T04:48:16.564Z,85.91
2018-09-11T04:49:16.586Z,85.62
2018-09-11T04:50:16.614Z,86
2018-09-11T04:51:16.376Z,85.33
2018-09-11T04:52:16.654Z,85.71
2018-09-11T04:53:16.680Z,85.52
2018-09-11T04:55:16.726Z,86.1
2018-09-11T04:56:17.046Z,85.52
2018-09-11T04:57:16.773Z,85.81
2018-09-11T04:58:16.798Z,85.62
2018-09-11T04:59:16.819Z,85.62
2018-09-11T05:00:31.504Z,85.71
2018-09-11T05:01:16.868Z,85.04
2018-09-11T05:02:16.896Z,85.08
2018-09-11T05:03:16.919Z,85.52
2018-09-11T05:04:16.986Z,85.24
2018-09-11T05:05:16.763Z,85.91
2018-09-11T05:06:16.729Z,85.81
2018-09-11T05:07:17.009Z,85.18
2018-09-11T05:08:16.771Z,85.57
2018-09-11T05:09:16.794Z,85.18
2018-09-11T05:10:16.818Z,85.18
2018-09-11T05:11:17.100Z,84.56
2018-09-11T05:12:17.132Z,84.6
2018-09-11T05:13:17.147Z,84.22
2018-09-11T05:14:17.172Z,84.12
2018-09-11T05:15:17.195Z,83.84
2018-09-11T05:16:31.876Z,84.03
2018-09-11T05:17:17.238Z,84.03
2018-09-11T05:18:17.268Z,84.12
2018-09-11T05:19:17.465Z,83.84
2018-09-11T05:20:17.308Z,84.03
2018-09-11T05:21:17.337Z,84.03
2018-09-11T05:22:17.358Z,84.22
2018-09-11T05:23:17.379Z,83.26
2018-09-11T05:24:17.144Z,83.64
2018-09-11T05:25:17.431Z,83.45
2018-09-11T05:26:17.196Z,83.36
2018-09-11T05:28:17.495Z,82.87
2018-09-11T05:29:17.526Z,82.87
2018-09-11T05:30:17.285Z,83.54
2018-09-11T05:31:17.567Z,82.87
2018-09-11T05:32:32.256Z,83.07
2018-09-11T05:33:17.612Z,82.87
2018-09-11T05:35:17.659Z,82.01
2018-09-11T05:36:17.683Z,82.82
2018-09-11T05:37:17.707Z,82.3
2018-09-11T05:38:17.730Z,82.4
2018-09-11T05:40:17.783Z,81.96
2018-09-11T05:41:17.802Z,81.48
2018-09-11T05:42:17.670Z,81.76
2018-09-11T05:43:17.847Z,81.96
2018-09-11T05:44:17.874Z,81.96
2018-09-11T05:45:17.893Z,81.86
2018-09-11T05:46:17.915Z,81.86
2018-09-11T05:47:32.602Z,81.38
2018-09-11T05:48:17.970Z,81.38
2018-09-11T05:49:17.730Z,81.76
2018-09-11T05:50:18.009Z,81.86
2018-09-11T05:51:18.034Z,81.67
2018-09-11T05:52:18.068Z,81.19
2018-09-11T05:53:17.824Z,81.76
2018-09-11T05:54:18.103Z,81.09
2018-09-11T05:55:18.132Z,80.99
2018-09-11T05:56:18.154Z,80.61
2018-09-11T05:57:18.190Z,80.51
2018-09-11T05:58:18.363Z,80.32
2018-09-11T05:59:18.221Z,80.32
2018-09-11T06:00:18.245Z,80.61
2018-09-11T06:01:18.275Z,80.9
2018-09-11T06:02:18.294Z,80.55
2018-09-11T06:03:18.325Z,80.55
2018-09-11T06:04:18.339Z,79.88
2018-09-11T06:06:18.134Z,79.98
2018-09-11T06:07:18.411Z,80.36
2018-09-11T06:08:18.440Z,80.36
2018-09-11T06:09:18.459Z,80.75
2018-09-11T06:10:18.481Z,80.17
2018-09-11T06:11:18.246Z,80.07
2018-09-11T06:12:18.534Z,80.17
2018-09-11T06:14:18.577Z,80.36
2018-09-11T06:15:18.598Z,80.75
2018-09-11T06:16:18.391Z,80.36
2018-09-11T06:17:18.389Z,79.79
2018-09-11T06:18:18.670Z,80.65
2018-09-11T06:19:33.356Z,80.65
2018-09-11T06:20:18.724Z,79.88
2018-09-11T06:21:18.746Z,79.98
2018-09-11T06:22:18.770Z,79.3
2018-09-11T06:23:18.791Z,79.02
2018-09-11T06:24:18.811Z,79.3
2018-09-11T06:25:18.838Z,79.02
2018-09-11T06:26:18.858Z,78.34
2018-09-11T06:27:18.885Z,78.09
2018-09-11T06:28:18.905Z,78.38
2018-09-11T06:29:19.250Z,78.63
2018-09-11T06:30:18.953Z,78.28
2018-09-11T06:31:18.976Z,78
2018-09-11T06:32:19.003Z,78.34
2018-09-11T06:33:19.023Z,77.96
2018-09-11T06:34:19.047Z,78.28
2018-09-11T06:35:33.743Z,77.61
2018-09-11T06:36:18.838Z,77.9
2018-09-11T06:37:19.119Z,76.94
2018-09-11T06:38:19.147Z,76.65
2018-09-11T06:40:18.934Z,76.88
2018-09-11T06:41:19.394Z,76.46
2018-09-11T06:42:18.980Z,75.82
2018-09-11T06:44:19.284Z,75.44
2018-09-11T06:45:19.314Z,76.11
2018-09-11T06:46:19.074Z,75.63
2018-09-11T06:47:19.102Z,75.24
2018-09-11T06:48:19.383Z,75.34
2018-09-11T06:49:19.411Z,75.15
2018-09-11T06:50:19.172Z,74.9
2018-09-11T06:51:34.112Z,74.32
2018-09-11T06:52:19.499Z,74.41
2018-09-11T06:53:19.501Z,74.13
2018-09-11T06:54:19.524Z,74.03
2018-09-11T06:55:19.549Z,74.13
2018-09-11T06:56:19.573Z,73.84
2018-09-11T06:57:19.336Z,74.03
2018-09-11T06:58:19.620Z,73.36
2018-09-11T06:59:19.646Z,73.97
2018-09-11T07:01:19.792Z,73.49
2018-09-11T07:02:19.760Z,72.59
2018-09-11T07:03:19.739Z,72.72
2018-09-11T07:04:19.766Z,73.1
2018-09-11T07:05:19.787Z,72.05
2018-09-11T07:06:19.811Z,72.63
2018-09-11T07:07:34.495Z,72.24
2018-09-11T07:08:19.883Z,71.76
2018-09-11T07:09:19.886Z,71.37
2018-09-11T07:10:19.907Z,71.7
2018-09-11T07:11:19.933Z,71.7
2018-09-11T07:12:19.697Z,71.5
2018-09-11T07:13:19.981Z,71.7
2018-09-11T07:14:20.003Z,71.12
2018-09-11T07:15:20.026Z,70.73
2018-09-11T07:16:20.051Z,69.96
2018-09-11T07:19:20.125Z,69.13
2018-09-11T07:20:21.091Z,68.84
2018-09-11T07:21:20.173Z,68.97
2018-09-11T07:22:34.861Z,68.1
2018-09-11T07:23:20.224Z,67.07
2018-09-11T07:24:20.257Z,66.49
2018-09-11T07:25:20.273Z,66.05
2018-09-11T07:26:20.306Z,65.66
2018-09-11T07:27:20.326Z,64.89
2018-09-11T07:28:20.348Z,65.37
2018-09-11T07:30:20.457Z,64.63
2018-09-11T07:31:20.460Z,63.95
2018-09-11T07:32:20.516Z,63.66
2018-09-11T07:33:20.212Z,62.82
2018-09-11T07:34:20.496Z,62.05
2018-09-11T07:35:20.521Z,62.37
2018-09-11T07:36:20.646Z,61.02
2018-09-11T07:37:20.573Z,61.02
2018-09-11T07:38:20.604Z,60.47
2018-09-11T07:39:20.628Z,60.47
2018-09-11T07:40:20.653Z,60.17
2018-09-11T07:41:20.679Z,59.89
2018-09-11T07:42:20.704Z,58.39
2018-09-11T07:43:20.757Z,56.85
2018-09-11T07:44:20.499Z,56.49
2018-09-11T07:45:20.569Z,56
2018-09-11T07:46:20.819Z,55.54
2018-09-11T07:47:20.942Z,54.21
2018-09-11T07:49:20.903Z,53.83
2018-09-11T07:50:20.925Z,54.02
2018-09-11T07:51:20.953Z,53.73
2018-09-11T07:52:21.021Z,53.24
2018-09-11T07:53:21.013Z,53.37
2018-09-11T07:54:35.704Z,54.31
2018-09-11T07:55:20.813Z,54.67
2018-09-11T07:56:21.102Z,54.96
2018-09-11T07:57:20.869Z,55.16
2018-09-11T07:58:21.161Z,54.48
2018-09-11T07:59:21.193Z,54.67
2018-09-11T08:00:21.218Z,54.02
2018-09-11T08:01:21.268Z,52.88
2018-09-11T08:02:21.274Z,52.3
2018-09-11T08:03:21.319Z,51.75
2018-09-11T08:04:21.437Z,51.45
2018-09-11T08:05:21.471Z,51.09
2018-09-11T08:06:21.391Z,50.34
2018-09-11T08:07:21.168Z,50.24
2018-09-11T08:08:21.455Z,50.63
2018-09-11T08:09:21.494Z,50.6
2018-09-11T08:10:36.175Z,50.51
2018-09-11T08:11:21.544Z,51.16
2018-09-11T08:12:21.572Z,51.06
2018-09-11T08:13:21.603Z,50.87
2018-09-11T08:14:21.630Z,51.35
2018-09-11T08:15:21.662Z,51.93
2018-09-11T08:16:21.450Z,52.33
2018-09-11T08:17:21.720Z,52.11
2018-09-11T08:18:21.492Z,52.69
2018-09-11T08:19:21.779Z,52.95
2018-09-11T08:21:21.840Z,53.34
2018-09-11T08:22:21.867Z,53.24
2018-09-11T08:23:21.894Z,52.59
2018-09-11T08:24:21.922Z,51.26
2018-09-11T08:25:21.954Z,51.06
2018-09-11T08:26:36.645Z,50.96
2018-09-11T08:27:22.012Z,50.77
2018-09-11T08:28:22.042Z,50.68
2018-09-11T08:29:22.164Z,50.21
2018-09-11T08:30:22.100Z,49.95
2018-09-11T08:31:22.128Z,49.66
2018-09-11T08:32:22.160Z,49.76
2018-09-11T08:33:21.934Z,50.31
2018-09-11T08:34:22.219Z,50.31
2018-09-11T08:35:22.254Z,50.41
2018-09-11T08:36:22.333Z,50.38
2018-09-11T08:37:22.318Z,50.29
2018-09-11T08:38:22.343Z,49.92
2018-09-11T08:39:22.375Z,49.46
2018-09-11T08:40:22.404Z,48.58
2018-09-11T08:41:22.438Z,48.88
2018-09-11T08:42:37.129Z,48.9
2018-09-11T08:43:22.496Z,49.17
2018-09-11T08:44:22.525Z,49.27
2018-09-11T08:45:22.557Z,49.17
2018-09-11T08:46:22.588Z,49.34
2018-09-11T08:47:22.360Z,49.66
2018-09-11T08:48:22.395Z,49.56
2018-09-11T08:49:22.682Z,48.41
2018-09-11T08:50:22.452Z,48.61
2018-09-11T08:51:22.744Z,48.41
2018-09-11T08:52:22.832Z,47.93
2018-09-11T08:53:22.800Z,47.76
2018-09-11T08:54:22.837Z,47.96
2018-09-11T08:55:22.863Z,47.93
2018-09-11T08:56:22.893Z,48.13
2018-09-11T08:57:37.589Z,48.71
2018-09-11T08:58:22.702Z,48.49
2018-09-11T08:59:22.987Z,47.83
2018-09-11T09:00:23.025Z,47.66
2018-09-11T09:01:23.046Z,47.66
2018-09-11T09:02:23.078Z,48.32
2018-09-11T09:03:23.109Z,48.13
2018-09-11T09:04:23.140Z,48.49
2018-09-11T09:07:23.231Z,49.15
2018-09-11T09:08:23.258Z,49.17
2018-09-11T09:09:23.293Z,49.27
2018-09-11T09:10:23.319Z,48.32
2018-09-11T09:11:23.351Z,49.17
2018-09-11T09:12:23.121Z,49.37
2018-09-11T09:13:23.412Z,49.15
2018-09-11T09:14:23.441Z,49.92
2018-09-11T09:15:23.471Z,49.15
2018-09-11T09:16:23.498Z,49.17
2018-09-11T09:17:23.526Z,49.54
2018-09-11T09:18:23.300Z,48.88
2018-09-11T09:19:23.330Z,48.78
2018-09-11T09:20:23.616Z,47.93
2018-09-11T09:21:23.647Z,47.93
2018-09-11T09:22:23.419Z,48.05
2018-09-11T09:23:23.708Z,47.86
2018-09-11T09:24:23.739Z,47.54
2018-09-11T09:25:23.763Z,47.64
2018-09-11T09:26:23.796Z,47.54
2018-09-11T09:27:23.937Z,47.44
2018-09-11T09:28:23.857Z,47.64
2018-09-11T09:29:38.546Z,47.05
2018-09-11T09:30:23.915Z,47.17
2018-09-11T09:31:23.944Z,46.4
2018-09-11T09:32:23.973Z,46.69
2018-09-11T09:34:24.032Z,46.88
2018-09-11T09:35:24.062Z,47.27
2018-09-11T09:36:24.210Z,46.88
2018-09-11T09:37:24.121Z,47.15
2018-09-11T09:39:24.178Z,46.86
2018-09-11T09:41:24.243Z,47.05
2018-09-11T09:42:24.265Z,47.05
2018-09-11T09:43:24.037Z,46.67
2018-09-11T09:44:24.326Z,47.25
2018-09-11T09:45:39.016Z,46.86
2018-09-11T09:46:24.382Z,47.05
2018-09-11T09:47:24.410Z,46.55
2018-09-11T09:48:24.182Z,47.03
2018-09-11T09:49:24.471Z,47.13
2018-09-11T09:50:24.505Z,47.49
2018-09-11T09:51:24.529Z,47.49
2018-09-11T09:52:24.555Z,47.4
2018-09-11T09:54:24.612Z,46.64
2018-09-11T09:55:24.641Z,46.55
2018-09-11T09:56:24.668Z,46.55
2018-09-11T09:57:24.439Z,46.74
2018-09-11T09:58:24.727Z,47.42
2018-09-11T09:59:24.756Z,47.4
2018-09-11T10:00:24.783Z,47.4
2018-09-11T10:01:39.472Z,46.91
2018-09-11T10:02:24.840Z,47.38
2018-09-11T10:03:24.865Z,46.89
2018-09-11T10:04:24.905Z,46.91
2018-09-11T10:05:24.922Z,47.3
2018-09-11T10:06:24.950Z,47.11
2018-09-11T10:07:24.980Z,47.3
2018-09-11T10:08:25.006Z,46.33
2018-09-11T10:09:25.044Z,46.42
2018-09-11T10:10:25.060Z,46.72
2018-09-11T10:11:25.090Z,46.52
2018-09-11T10:12:24.858Z,46.04
2018-09-11T10:13:25.144Z,46.11
2018-09-11T10:14:25.178Z,46.31
2018-09-11T10:15:24.945Z,46.6
2018-09-11T10:16:25.232Z,46.89
2018-09-11T10:17:39.962Z,46.5
2018-09-11T10:18:25.287Z,46.89
2018-09-11T10:19:25.057Z,46.21
2018-09-11T10:20:25.082Z,46.31
2018-09-11T10:21:25.370Z,46.42
2018-09-11T10:22:25.401Z,47.08
2018-09-11T10:23:25.167Z,46.69
2018-09-11T10:24:25.451Z,46.6
2018-09-11T10:25:25.480Z,46.72
2018-09-11T10:26:25.510Z,46.42
2018-09-11T10:27:25.552Z,46.72
2018-09-11T10:29:25.596Z,46.52
2018-09-11T10:30:25.621Z,45.57
2018-09-11T10:31:25.649Z,45.67
2018-09-11T10:32:40.341Z,45.87
2018-09-11T10:33:25.709Z,45.28
2018-09-11T10:34:25.835Z,45.94
2018-09-11T10:35:25.762Z,46.33
2018-09-11T10:36:25.792Z,46.04
2018-09-11T10:38:25.847Z,45.09
2018-09-11T10:39:26.067Z,44.99
2018-09-11T10:40:25.904Z,44.7
2018-09-11T10:41:25.930Z,44.14
2018-09-11T10:42:25.962Z,44.62
2018-09-11T10:43:25.988Z,44.12
2018-09-11T10:44:26.017Z,44.41
2018-09-11T10:45:26.047Z,44.31
2018-09-11T10:46:26.075Z,44.79
2018-09-11T10:47:26.150Z,44.12
2018-09-11T10:48:26.130Z,43.92
2018-09-11T10:49:26.157Z,43.73
2018-09-11T10:50:26.184Z,43.41
2018-09-11T10:51:26.210Z,42.36
2018-09-11T10:52:26.242Z,43.05
2018-09-11T10:53:26.018Z,43.02
2018-09-11T10:54:26.306Z,42.76
2018-09-11T10:55:26.327Z,42.27
2018-09-11T10:56:26.358Z,42.76
2018-09-11T10:58:26.494Z,41.59
2018-09-11T10:59:26.434Z,42.36
2018-09-11T11:00:26.228Z,42.56
2018-09-11T11:01:26.491Z,42.36
2018-09-11T11:02:26.261Z,41.69
2018-09-11T11:03:26.544Z,42.18
2018-09-11T11:04:41.239Z,42.66
2018-09-11T11:05:26.602Z,42.76
2018-09-11T11:06:26.372Z,42.36
2018-09-11T11:07:26.399Z,42.36
2018-09-11T11:08:26.429Z,42.36
2018-09-11T11:09:26.713Z,42.66
2018-09-11T11:10:26.481Z,42.66
2018-09-11T11:11:26.767Z,41.88
2018-09-11T11:12:26.795Z,42.76
2018-09-11T11:13:26.821Z,42.36
2018-09-11T11:14:26.591Z,41.49
2018-09-11T11:15:26.877Z,41.13
2018-09-11T11:16:26.905Z,40.17
2018-09-11T11:17:26.933Z,40.06
2018-09-11T11:18:26.959Z,39.28
2018-09-11T11:19:26.729Z,39.49
2018-09-11T11:20:41.676Z,38.91
2018-09-11T11:21:26.784Z,39.1
2018-09-11T11:22:27.069Z,38.03
2018-09-11T11:23:26.839Z,38.13
2018-09-11T11:24:26.868Z,38.5
2018-09-11T11:25:27.150Z,38.91
2018-09-11T11:26:27.180Z,39.37
2018-09-11T11:27:27.207Z,39.47
2018-09-11T11:29:27.004Z,39.75
2018-09-11T11:30:27.293Z,40.52
2018-09-11T11:31:27.319Z,39.96
2018-09-11T11:32:27.349Z,39.57
2018-09-11T11:33:27.377Z,39.16
2018-09-11T11:34:27.441Z,39.94
2018-09-11T11:35:27.475Z,40.03
2018-09-11T11:36:42.267Z,39.06
2018-09-11T11:37:27.354Z,39.08
2018-09-11T11:38:27.511Z,38.21
2018-09-11T11:39:27.281Z,37.92
2018-09-11T11:40:27.309Z,38.21
2018-09-11T11:41:27.338Z,38.31
2018-09-11T11:42:27.878Z,38.6
2018-09-11T11:44:27.684Z,38.6
2018-09-11T11:45:27.707Z,38.09
2018-09-11T11:46:27.739Z,38.67
2018-09-11T11:48:27.786Z,38.29
2018-09-11T11:49:27.841Z,38.09
2018-09-11T11:50:27.888Z,38.39
2018-09-11T11:51:27.868Z,38.87
2018-09-11T11:52:42.559Z,38.77
2018-09-11T11:53:27.928Z,39.08
2018-09-11T11:54:27.952Z,38.98
2018-09-11T11:55:28.100Z,38.13
2018-09-11T11:56:28.018Z,38.32
2018-09-11T11:57:28.035Z,38.13
2018-09-11T11:58:28.064Z,37.64
2018-09-11T11:59:28.088Z,36.3
2018-09-11T12:01:28.322Z,36.38
2018-09-11T12:02:27.914Z,35.7
2018-09-11T12:03:28.199Z,35.41
2018-09-11T12:04:27.970Z,35.31
2018-09-11T12:05:28.259Z,36.1
2018-09-11T12:06:28.296Z,35.41
2018-09-11T12:07:42.977Z,35.89
2018-09-11T12:08:28.348Z,35.5
2018-09-11T12:10:28.394Z,35.8
2018-09-11T12:11:28.423Z,35.13
2018-09-11T12:12:28.461Z,35.42
2018-09-11T12:13:28.478Z,35.71
2018-09-11T12:15:28.539Z,36.28
2018-09-11T12:16:28.573Z,36.18
2018-09-11T12:17:28.589Z,36.57
2018-09-11T12:18:28.618Z,35.89
2018-09-11T12:19:28.644Z,36.28
2018-09-11T12:20:28.671Z,35.89
2018-09-11T12:21:28.698Z,35.23
2018-09-11T12:22:28.726Z,35.33
2018-09-11T12:24:28.784Z,34.64
2018-09-11T12:25:28.909Z,34.25
2018-09-11T12:26:28.582Z,34.94
2018-09-11T12:27:28.934Z,34.92
2018-09-11T12:28:28.897Z,34.92
2018-09-11T12:29:28.952Z,35.02
2018-09-11T12:30:28.950Z,35.21
2018-09-11T12:31:28.978Z,35.78
2018-09-11T12:34:29.063Z,35.39
2018-09-11T12:35:29.088Z,35.97
2018-09-11T12:36:28.859Z,35.99
2018-09-11T12:37:29.145Z,36.07
2018-09-11T12:38:29.173Z,36.46
2018-09-11T12:39:43.864Z,36.16
2018-09-11T12:40:29.228Z,36.16
2018-09-11T12:41:29.259Z,36.94
2018-09-11T12:42:29.285Z,36.55
2018-09-11T12:43:29.321Z,36.94
2018-09-11T12:44:29.338Z,37.04
2018-09-11T12:45:29.366Z,37.43
2018-09-11T12:47:29.528Z,38.09
2018-09-11T12:49:29.479Z,38.29
2018-09-11T12:50:29.503Z,38.01
2018-09-11T12:51:29.529Z,38.11
2018-09-11T12:52:29.322Z,37.92
2018-09-11T12:53:29.589Z,38.11
2018-09-11T12:54:29.612Z,38.21
2018-09-11T12:55:44.302Z,38.01
2018-09-11T12:56:29.669Z,37.92
2018-09-11T12:57:29.694Z,38.4
2018-09-11T12:58:29.725Z,38.4
2018-09-11T12:59:29.764Z,38.5
2018-09-11T13:00:29.780Z,38.11
2018-09-11T13:01:29.805Z,38.4
2018-09-11T13:02:29.987Z,38.11
2018-09-11T13:03:29.858Z,38.11
2018-09-11T13:04:29.896Z,37.72
2018-09-11T13:05:29.914Z,38.4
2018-09-11T13:06:29.946Z,38.5
2018-09-11T13:07:29.969Z,38.87
2018-09-11T13:08:29.997Z,38.57
2018-09-11T13:09:30.227Z,38.57
2018-09-11T13:10:30.051Z,39.06
2018-09-11T13:11:44.741Z,38.01
2018-09-11T13:12:30.104Z,38.11
2018-09-11T13:13:30.149Z,38.4
2018-09-11T13:14:30.158Z,37.92
2018-09-11T13:15:30.186Z,38.21
2018-09-11T13:16:30.215Z,38.5
2018-09-11T13:17:30.241Z,38.21
2018-09-11T13:18:30.269Z,38.4
2018-09-11T13:19:30.037Z,38.52
2018-09-11T13:20:30.323Z,38.23
2018-09-11T13:21:30.190Z,38.52
2018-09-11T13:22:30.483Z,38.6
2018-09-11T13:23:30.407Z,38.31
2018-09-11T13:24:30.438Z,38.5
2018-09-11T13:25:30.834Z,38.6
2018-09-11T13:26:30.488Z,38.5
2018-09-11T13:27:45.175Z,38.4
2018-09-11T13:28:30.541Z,38.6
2018-09-11T13:29:30.311Z,38.79
2018-09-11T13:30:30.595Z,38.5
2018-09-11T13:31:30.623Z,38.6
2018-09-11T13:32:30.647Z,38.7
2018-09-11T13:33:30.735Z,38.96
2018-09-11T13:34:30.704Z,38.87
2018-09-11T13:35:30.730Z,39.16
2018-09-11T13:37:30.526Z,39.06
2018-09-11T13:38:30.812Z,39.36
2018-09-11T13:39:30.845Z,39.45
2018-09-11T13:40:30.870Z,39.26
2018-09-11T13:41:30.637Z,39.55
2018-09-11T13:42:45.585Z,39.65
2018-09-11T13:43:30.948Z,39.16
2018-09-11T13:44:30.976Z,39.55
2018-09-11T13:46:31.028Z,39.45
2018-09-11T13:47:31.420Z,39.36
2018-09-11T13:48:30.827Z,39.45
2018-09-11T13:49:31.110Z,39.82